createdAt,value
2022-08-22T00:00:13.952Z,99655.63
2022-08-22T00:02:57.069Z,99717.19
2022-08-22T00:02:59.131Z,99696.50
2022-08-22T00:03:25.925Z,99646.28
2022-08-22T00:06:50.136Z,99654.94
2022-08-22T00:10:08.204Z,99662.84
2022-08-22T00:13:18.155Z,99658.50
2022-08-22T00:16:29.035Z,99661.81
2022-08-22T00:19:44.143Z,99666.97
2022-08-22T00:23:19.337Z,99670.25
2022-08-22T00:26:34.539Z,99677.25
2022-08-22T00:29:46.052Z,99670.81
2022-08-22T00:32:54.394Z,99687.47
2022-08-22T00:36:25.579Z,99663.59
2022-08-22T00:39:34.988Z,99672.94
2022-08-22T00:42:55.944Z,99670.69
2022-08-22T00:46:42.588Z,99660.25
2022-08-22T00:50:30.297Z,99646.59
2022-08-22T00:53:41.852Z,99660.38
2022-08-22T00:57:13.616Z,99672.16
2022-08-22T01:00:28.797Z,99670.91
2022-08-22T01:03:49.359Z,99679.25
2022-08-22T01:07:04.006Z,99684.69
2022-08-22T01:10:26.607Z,99668.34
2022-08-22T01:13:41.155Z,99675.59
2022-08-22T01:16:56.136Z,99672.16
2022-08-22T01:20:10.696Z,99670.91
2022-08-22T01:23:47.504Z,99664.94
2022-08-22T01:27:31.320Z,99678.12
2022-08-22T01:30:59.233Z,99675.91
2022-08-22T01:34:23.286Z,99670.69
2022-08-22T01:37:44.271Z,99675.72
2022-08-22T01:41:13.104Z,99669.25
2022-08-22T01:44:18.820Z,99659.69
2022-08-22T01:47:37.371Z,99672.50
2022-08-22T01:50:53.742Z,99674.16
2022-08-22T01:54:00.517Z,99669.47
2022-08-22T01:57:07.952Z,99666.28
2022-08-22T02:00:18.453Z,99661.81
2022-08-22T02:03:37.301Z,99642.28
2022-08-22T02:06:58.386Z,99652.25
2022-08-22T02:11:06.100Z,99654.81
2022-08-22T02:14:33.474Z,99658.03
2022-08-22T02:18:01.310Z,99656.06
2022-08-22T02:21:15.724Z,99643.25
2022-08-22T02:24:36.965Z,99661.59
2022-08-22T02:28:12.772Z,99654.72
2022-08-22T02:31:27.290Z,99659.59
2022-08-22T02:35:01.662Z,99662.03
2022-08-22T02:38:35.353Z,99661.03
2022-08-22T02:41:50.199Z,99662.59
2022-08-22T02:44:53.107Z,99662.50
2022-08-22T02:48:17.244Z,99667.25
2022-08-22T02:51:20.097Z,99646.91
2022-08-22T02:54:32.103Z,99662.91
2022-08-22T02:58:21.091Z,99658.25
2022-08-22T03:01:32.344Z,99651.03
2022-08-22T03:04:40.961Z,99662.81
2022-08-22T03:08:04.967Z,99654.25
2022-08-22T03:11:24.160Z,99656.59
2022-08-22T03:14:38.923Z,99663.81
2022-08-22T03:17:55.256Z,99661.47
2022-08-22T03:21:11.134Z,99668.69
2022-08-22T03:24:41.363Z,99668.38
2022-08-22T03:27:51.975Z,99664.03
2022-08-22T03:31:17.413Z,99646.25
2022-08-22T03:34:23.961Z,99669.12
2022-08-22T03:37:42.310Z,99672.56
2022-08-22T03:41:26.140Z,99665.81
2022-08-22T03:44:47.056Z,99664.47
2022-08-22T03:48:17.303Z,99661.81
2022-08-22T03:51:41.973Z,99663.72
2022-08-22T03:54:53.961Z,99670.69
2022-08-22T03:58:05.724Z,99672.38
2022-08-22T04:01:46.222Z,99672.78
2022-08-22T04:05:23.803Z,99674.25
2022-08-22T04:08:45.234Z,99671.91
2022-08-22T04:12:11.295Z,99668.03
2022-08-22T04:15:33.639Z,99680.59
2022-08-22T04:19:10.648Z,99679.25
2022-08-22T04:23:04.180Z,99681.56
2022-08-22T04:26:27.695Z,99677.59
2022-08-22T04:30:05.919Z,99690.22
2022-08-22T04:33:26.082Z,99669.78
2022-08-22T04:36:38.034Z,99685.03
2022-08-22T04:39:49.632Z,99682.78
2022-08-22T04:43:06.594Z,99685.78
2022-08-22T04:46:14.541Z,99687.91
2022-08-22T04:49:28.389Z,99684.25
2022-08-22T04:52:52.474Z,99692.44
2022-08-22T04:56:04.117Z,99684.12
2022-08-22T04:59:17.482Z,99684.47
2022-08-22T05:02:23.631Z,99683.91
2022-08-22T05:05:42.682Z,99681.03
2022-08-22T05:08:48.404Z,99693.81
2022-08-22T05:12:03.802Z,99697.56
2022-08-22T05:15:19.011Z,99687.34
2022-08-22T05:18:34.755Z,99698.59
2022-08-22T05:21:40.876Z,99698.13
2022-08-22T05:24:48.912Z,99708.91
2022-08-22T05:28:02.129Z,99709.78
2022-08-22T05:31:12.411Z,99701.34
2022-08-22T05:34:20.330Z,99711.00
2022-08-22T05:37:37.506Z,99684.69
2022-08-22T05:40:41.276Z,99710.47
2022-08-22T05:43:45.368Z,99708.59
2022-08-22T05:47:12.610Z,99693.50
2022-08-22T05:50:18.425Z,99695.16
2022-08-22T05:53:21.075Z,99710.41
2022-08-22T05:56:47.528Z,99722.28
2022-08-22T05:59:56.936Z,99718.50
2022-08-22T06:03:13.421Z,99730.75
2022-08-22T06:06:19.486Z,99735.06
2022-08-22T06:09:46.399Z,99730.62
2022-08-22T06:13:41.549Z,99729.63
2022-08-22T06:17:03.786Z,99732.94
2022-08-22T06:20:09.506Z,99720.28
2022-08-22T06:23:21.403Z,99725.28
2022-08-22T06:26:31.688Z,99732.97
2022-08-22T06:29:39.645Z,99734.84
2022-08-22T06:32:59.761Z,99734.28
2022-08-22T06:36:31.976Z,99727.06
2022-08-22T06:39:38.303Z,99737.94
2022-08-22T06:42:45.708Z,99744.16
2022-08-22T06:45:50.369Z,99738.81
2022-08-22T06:48:55.698Z,99738.38
2022-08-22T06:52:02.104Z,99748.38
2022-08-22T06:55:10.114Z,99740.03
2022-08-22T06:58:17.463Z,99746.81
2022-08-22T07:01:30.697Z,99751.81
2022-08-22T07:04:33.801Z,99743.03
2022-08-22T07:07:37.764Z,99735.16
2022-08-22T07:10:43.629Z,99755.19
2022-08-22T07:13:53.788Z,99749.16
2022-08-22T07:16:58.627Z,99757.16
2022-08-22T07:20:25.485Z,99754.84
2022-08-22T07:23:46.010Z,99757.81
2022-08-22T07:27:02.776Z,99753.34
2022-08-22T07:30:15.229Z,99765.13
2022-08-22T07:33:45.350Z,99769.22
2022-08-22T07:37:01.683Z,99772.87
2022-08-22T07:40:34.614Z,99760.09
2022-08-22T07:43:46.489Z,99760.56
2022-08-22T07:47:03.192Z,99767.19
2022-08-22T07:50:09.623Z,99767.63
2022-08-22T07:53:27.054Z,99780.22
2022-08-22T07:56:36.004Z,99767.78
2022-08-22T07:59:45.303Z,99763.94
2022-08-22T08:02:53.076Z,99780.94
2022-08-22T08:05:56.495Z,99781.53
2022-08-22T08:08:59.328Z,99780.31
2022-08-22T08:12:05.877Z,99779.72
2022-08-22T08:15:15.130Z,99789.28
2022-08-22T08:18:25.135Z,99789.59
2022-08-22T08:21:27.759Z,99778.56
2022-08-22T08:24:39.554Z,99800.59
2022-08-22T08:28:04.941Z,99781.31
2022-08-22T08:31:28.020Z,99791.09
2022-08-22T08:34:34.744Z,99807.59
2022-08-22T08:37:49.248Z,99794.72
2022-08-22T08:41:00.631Z,99804.63
2022-08-22T08:44:26.784Z,99805.69
2022-08-22T08:47:46.110Z,99809.75
2022-08-22T08:51:11.088Z,99803.22
2022-08-22T08:54:35.948Z,99794.78
2022-08-22T08:57:54.893Z,99816.03
2022-08-22T09:01:19.429Z,99796.19
2022-08-22T09:04:46.407Z,99809.19
2022-08-22T09:08:00.817Z,99814.69
2022-08-22T09:11:10.181Z,99815.59
2022-08-22T09:14:41.766Z,99817.81
2022-08-22T09:18:00.152Z,99814.81
2022-08-22T09:21:42.033Z,99810.94
2022-08-22T09:25:14.941Z,99818.69
2022-08-22T09:28:32.362Z,99820.91
2022-08-22T09:32:00.332Z,99820.28
2022-08-22T09:35:17.095Z,99821.06
2022-08-22T09:38:34.752Z,99825.84
2022-08-22T09:42:02.778Z,99824.16
2022-08-22T09:45:11.855Z,99824.94
2022-08-22T09:48:37.380Z,99826.47
2022-08-22T09:51:40.487Z,99825.87
2022-08-22T09:55:03.302Z,99828.84
2022-08-22T09:58:38.841Z,99810.25
2022-08-22T10:01:56.383Z,99830.16
2022-08-22T10:05:40.353Z,99809.72
2022-08-22T10:08:57.738Z,99828.44
2022-08-22T10:12:12.500Z,99818.22
2022-08-22T10:15:49.619Z,99822.62
2022-08-22T10:19:16.779Z,99830.22
2022-08-22T10:22:30.033Z,99830.91
2022-08-22T10:25:42.450Z,99833.25
2022-08-22T10:28:54.318Z,99832.34
2022-08-22T10:32:10.750Z,99837.69
2022-08-22T10:35:25.583Z,99833.34
2022-08-22T10:38:36.032Z,99835.16
2022-08-22T10:42:05.870Z,99844.53
2022-08-22T10:45:36.540Z,99835.28
2022-08-22T10:48:47.846Z,99837.31
2022-08-22T10:52:14.736Z,99806.50
2022-08-22T10:55:25.595Z,99837.16
2022-08-22T10:58:36.940Z,99806.66
2022-08-22T11:02:02.296Z,99834.22
2022-08-22T11:05:13.480Z,99837.62
2022-08-22T11:08:48.168Z,99825.53
2022-08-22T11:12:19.365Z,99840.09
2022-08-22T11:16:04.956Z,99838.09
2022-08-22T11:19:23.218Z,99833.78
2022-08-22T11:22:36.586Z,99834.56
2022-08-22T11:25:58.059Z,99828.97
2022-08-22T11:29:26.362Z,99843.25
2022-08-22T11:32:34.927Z,99834.13
2022-08-22T11:35:47.975Z,99837.53
2022-08-22T11:39:01.184Z,99841.41
2022-08-22T11:42:12.389Z,99848.69
2022-08-22T11:45:21.833Z,99828.97
2022-08-22T11:48:47.821Z,99845.75
2022-08-22T11:52:13.636Z,99814.38
2022-08-22T11:55:33.166Z,99838.63
2022-08-22T11:58:43.722Z,99839.53
2022-08-22T12:02:00.184Z,99840.91
2022-08-22T12:05:38.037Z,99834.09
2022-08-22T12:08:58.624Z,99830.59
2022-08-22T12:13:01.940Z,99827.81
2022-08-22T12:16:26.689Z,99825.63
2022-08-22T12:20:17.442Z,99821.47
2022-08-22T12:23:38.033Z,99813.81
2022-08-22T12:27:07.797Z,99813.62
2022-08-22T12:30:12.853Z,99815.63
2022-08-22T12:33:42.522Z,99814.94
2022-08-22T12:37:06.686Z,99810.03
2022-08-22T12:40:59.021Z,99781.31
2022-08-22T12:44:47.084Z,99798.22
2022-08-22T12:47:50.757Z,99790.03
2022-08-22T12:54:42.383Z,99783.38
2022-08-22T13:02:13.880Z,99796.78
2022-08-22T13:05:24.992Z,99781.56
2022-08-22T13:08:33.492Z,99777.56
2022-08-22T13:11:41.210Z,99790.31
2022-08-22T13:14:46.117Z,99761.75
2022-08-22T13:17:53.440Z,99790.28
2022-08-22T13:20:58.255Z,99795.56
2022-08-22T13:24:38.538Z,99772.75
2022-08-22T13:27:50.761Z,99780.00
2022-08-22T13:30:56.395Z,99798.97
2022-08-22T13:34:06.975Z,99793.41
2022-08-22T13:37:18.079Z,99786.28
2022-08-22T13:40:32.645Z,99807.66
2022-08-22T13:44:22.482Z,99809.87
2022-08-22T13:47:31.675Z,99788.47
2022-08-22T13:50:54.085Z,99802.47
2022-08-22T13:54:12.165Z,99811.91
2022-08-22T13:57:23.839Z,99809.59
2022-08-22T14:00:56.500Z,99803.09
2022-08-22T14:04:05.602Z,99810.97
2022-08-22T14:07:58.312Z,99816.09
2022-08-22T14:11:24.273Z,99823.22
2022-08-22T14:14:32.644Z,99820.56
2022-08-22T14:17:43.107Z,99822.28
2022-08-22T14:20:47.625Z,99808.00
2022-08-22T14:23:52.951Z,99811.28
2022-08-22T14:27:15.903Z,99825.72
2022-08-22T14:30:24.544Z,99793.78
2022-08-22T14:33:35.111Z,99829.28
2022-08-22T14:37:05.964Z,99827.56
2022-08-22T14:40:17.922Z,99815.78
2022-08-22T14:43:40.348Z,99822.62
2022-08-22T14:46:58.094Z,99814.19
2022-08-22T14:50:11.166Z,99795.59
2022-08-22T14:53:20.177Z,99805.53
2022-08-22T14:56:30.585Z,99810.47
2022-08-22T14:59:50.019Z,99794.66
2022-08-22T15:02:55.328Z,99807.97
2022-08-22T15:06:10.897Z,99797.72
2022-08-22T15:09:40.500Z,99804.53
2022-08-22T15:12:51.483Z,99791.34
2022-08-22T15:15:58.832Z,99781.59
2022-08-22T15:19:25.259Z,99799.22
2022-08-22T15:22:30.551Z,99804.38
2022-08-22T15:25:35.099Z,99792.31
2022-08-22T15:28:53.199Z,99801.78
2022-08-22T15:32:02.422Z,99793.53
2022-08-22T15:35:07.776Z,99806.53
2022-08-22T15:38:31.252Z,99803.59
2022-08-22T15:41:36.415Z,99815.75
2022-08-22T15:44:44.217Z,99810.16
2022-08-22T15:47:52.330Z,99813.91
2022-08-22T15:51:01.298Z,99798.09
2022-08-22T15:54:24.993Z,99803.84
2022-08-22T15:57:40.531Z,99789.41
2022-08-22T16:01:19.107Z,99804.94
2022-08-22T16:05:11.373Z,99786.94
2022-08-22T16:08:21.592Z,99808.03
2022-08-22T16:11:33.473Z,99804.31
2022-08-22T16:14:36.360Z,99785.72
2022-08-22T16:17:45.904Z,99804.31
2022-08-22T16:20:56.321Z,99807.06
2022-08-22T16:23:59.393Z,99816.69
2022-08-22T16:27:19.208Z,99818.19
2022-08-22T16:30:33.639Z,99828.59
2022-08-22T16:33:40.860Z,99830.12
2022-08-22T16:36:47.256Z,99795.16
2022-08-22T16:39:58.515Z,99836.22
2022-08-22T16:43:18.607Z,99832.03
2022-08-22T16:46:33.264Z,99844.56
2022-08-22T16:50:23.013Z,99844.31
2022-08-22T16:53:28.661Z,99846.25
2022-08-22T16:57:10.077Z,99854.72
2022-08-22T17:00:36.121Z,99851.38
2022-08-22T17:04:00.576Z,99858.56
2022-08-22T17:07:21.721Z,99863.75
2022-08-22T17:10:49.930Z,99860.22
2022-08-22T17:14:23.677Z,99866.47
2022-08-22T17:17:59.809Z,99864.97
2022-08-22T17:21:25.998Z,99863.22
2022-08-22T17:24:40.533Z,99869.91
2022-08-22T17:27:47.009Z,99870.16
2022-08-22T17:31:04.724Z,99880.19
2022-08-22T17:34:17.154Z,99889.78
2022-08-22T17:37:30.657Z,99878.06
2022-08-22T17:41:03.963Z,99895.34
2022-08-22T17:44:27.334Z,99892.97
2022-08-22T17:48:15.143Z,99907.91
2022-08-22T17:51:30.730Z,99908.47
2022-08-22T17:54:37.475Z,99914.12
2022-08-22T17:57:49.681Z,99904.88
2022-08-22T18:01:04.847Z,99908.44
2022-08-22T18:04:17.633Z,99889.19
2022-08-22T18:07:44.465Z,99913.78
2022-08-22T18:11:01.433Z,99924.66
2022-08-22T18:14:07.507Z,99921.00
2022-08-22T18:17:21.864Z,99917.44
2022-08-22T18:20:31.871Z,99917.22
2022-08-22T18:23:40.507Z,99894.97
2022-08-22T18:27:10.588Z,99923.75
2022-08-22T18:30:38.906Z,99939.44
2022-08-22T18:33:55.542Z,99938.19
2022-08-22T18:37:23.291Z,99901.13
2022-08-22T18:40:46.902Z,99927.28
2022-08-22T18:43:54.241Z,99936.84
2022-08-22T18:47:00.700Z,99948.84
2022-08-22T18:50:31.282Z,99919.75
2022-08-22T18:53:39.317Z,99936.22
2022-08-22T18:56:58.273Z,99959.56
2022-08-22T19:00:16.760Z,99960.44
2022-08-22T19:03:38.500Z,99953.94
2022-08-22T19:07:18.389Z,99947.69
2022-08-22T19:10:36.793Z,99955.69
2022-08-22T19:14:03.120Z,99954.06
2022-08-22T19:17:40.310Z,99977.06
2022-08-22T19:21:01.529Z,99969.94
2022-08-22T19:24:07.945Z,99961.66
2022-08-22T19:27:10.524Z,99960.25
2022-08-22T19:30:41.591Z,99956.78
2022-08-22T19:33:49.567Z,99954.97
2022-08-22T19:37:11.721Z,99951.78
2022-08-22T19:40:46.131Z,99950.00
2022-08-22T19:43:49.219Z,99955.06
2022-08-22T19:47:18.112Z,99926.44
2022-08-22T19:50:21.378Z,99955.31
2022-08-22T19:53:38.864Z,99959.38
2022-08-22T19:56:59.703Z,99939.09
2022-08-22T20:00:14.106Z,99958.59
2022-08-22T20:03:41.794Z,99936.75
2022-08-22T20:07:15.059Z,99964.94
2022-08-22T20:10:33.907Z,99962.34
2022-08-22T20:13:37.899Z,99957.78
2022-08-22T20:17:09.307Z,99963.56
2022-08-22T20:20:31.603Z,99953.97
2022-08-22T20:23:39.248Z,99956.34
2022-08-22T20:27:09.921Z,99954.87
2022-08-22T20:30:27.503Z,99966.84
2022-08-22T20:33:46.586Z,99966.38
2022-08-22T20:37:09.558Z,99965.63
2022-08-22T20:40:54.827Z,99961.63
2022-08-22T20:44:01.740Z,99967.62
2022-08-22T20:47:13.365Z,99963.06
2022-08-22T20:50:27.784Z,99959.41
2022-08-22T20:53:31.537Z,99951.31
2022-08-22T20:56:48.715Z,99959.34
2022-08-22T20:59:57.893Z,99943.50
2022-08-22T21:03:07.969Z,99956.84
2022-08-22T21:06:17.229Z,99944.84
2022-08-22T21:09:40.032Z,99952.44
2022-08-22T21:12:42.692Z,99947.56
2022-08-22T21:15:52.605Z,99929.66
2022-08-22T21:18:56.442Z,99956.16
2022-08-22T21:22:17.833Z,99964.03
2022-08-22T21:25:20.630Z,99964.03
2022-08-22T21:28:31.820Z,99953.22
2022-08-22T21:31:48.863Z,99965.72
2022-08-22T21:34:52.271Z,99974.19
2022-08-22T21:37:56.504Z,99969.84
2022-08-22T21:41:02.356Z,99969.84
2022-08-22T21:44:28.850Z,99961.69
2022-08-22T21:47:37.474Z,99961.59
2022-08-22T21:50:41.427Z,99960.47
2022-08-22T21:53:44.529Z,99950.97
2022-08-22T21:56:49.798Z,99936.34
2022-08-22T21:59:59.374Z,99967.75
2022-08-22T22:03:02.942Z,99940.37
2022-08-22T22:06:06.772Z,99962.59
2022-08-22T22:09:14.577Z,99976.09
2022-08-22T22:12:18.934Z,99951.88
2022-08-22T22:15:25.205Z,99967.81
2022-08-22T22:18:32.750Z,99927.41
2022-08-22T22:21:35.575Z,99968.13
2022-08-22T22:24:38.742Z,99968.84
2022-08-22T22:27:41.479Z,99966.00
2022-08-22T22:30:46.327Z,99966.84
2022-08-22T22:33:49.033Z,99966.00
2022-08-22T22:36:53.682Z,99967.94
2022-08-22T22:39:56.566Z,99967.56
2022-08-22T22:42:59.669Z,99973.66
2022-08-22T22:46:02.325Z,99939.97
2022-08-22T22:49:05.947Z,99946.28
2022-08-22T22:52:08.620Z,99963.91
2022-08-22T22:55:24.412Z,99947.19
2022-08-22T22:58:29.222Z,99980.94
2022-08-22T23:01:33.401Z,99964.38
2022-08-22T23:04:39.333Z,99941.03
2022-08-22T23:07:42.411Z,99964.69
2022-08-22T23:10:45.083Z,99973.00
2022-08-22T23:13:48.559Z,99974.38
2022-08-22T23:16:51.283Z,99963.19
2022-08-22T23:19:54.407Z,99992.13
2022-08-22T23:22:57.098Z,99992.19
2022-08-22T23:26:00.115Z,100001.84
2022-08-22T23:29:03.031Z,99984.59
2022-08-22T23:32:07.098Z,99987.28
2022-08-22T23:35:10.149Z,99967.78
2022-08-22T23:38:13.376Z,99991.78
2022-08-22T23:41:18.432Z,99992.63
2022-08-22T23:44:24.398Z,99976.81
2022-08-22T23:47:27.093Z,99943.78
2022-08-22T23:50:30.102Z,99939.87
2022-08-22T23:53:33.979Z,99966.78
2022-08-22T23:56:42.385Z,99953.88
2022-08-22T23:59:48.050Z,99937.41
